sensor_id;sensor_type;location;lat;lon;timestamp;temperature;humidity
76855;DHT22;66343;44.588;33.450;2023-06-26T00:01:03;24.56;65.69
76855;DHT22;66343;44.588;33.450;2023-06-26T00:03:34;24.50;66.18
76855;DHT22;66343;44.588;33.450;2023-06-26T00:06:06;24.47;65.98
76855;DHT22;66343;44.588;33.450;2023-06-26T00:08:41;24.46;66.05
76855;DHT22;66343;44.588;33.450;2023-06-26T00:11:12;24.43;65.86
76855;DHT22;66343;44.588;33.450;2023-06-26T00:13:48;24.43;65.85
76855;DHT22;66343;44.588;33.450;2023-06-26T00:16:27;24.44;65.69
76855;DHT22;66343;44.588;33.450;2023-06-26T00:19:00;24.45;65.69
76855;DHT22;66343;44.588;33.450;2023-06-26T00:21:31;24.45;65.78
76855;DHT22;66343;44.588;33.450;2023-06-26T00:24:06;24.45;65.77
76855;DHT22;66343;44.588;33.450;2023-06-26T00:26:38;24.46;65.72
76855;DHT22;66343;44.588;33.450;2023-06-26T00:29:08;24.43;65.77
76855;DHT22;66343;44.588;33.450;2023-06-26T00:31:40;24.44;65.70
76855;DHT22;66343;44.588;33.450;2023-06-26T00:34:12;24.45;65.62
76855;DHT22;66343;44.588;33.450;2023-06-26T00:36:54;24.43;65.66
76855;DHT22;66343;44.588;33.450;2023-06-26T00:39:26;24.42;65.82
76855;DHT22;66343;44.588;33.450;2023-06-26T00:41:58;24.40;65.87
76855;DHT22;66343;44.588;33.450;2023-06-26T00:44:31;24.36;66.07
76855;DHT22;66343;44.588;33.450;2023-06-26T00:47:05;24.29;66.15
76855;DHT22;66343;44.588;33.450;2023-06-26T00:49:36;24.29;66.43
76855;DHT22;66343;44.588;33.450;2023-06-26T00:52:12;24.30;66.22
76855;DHT22;66343;44.588;33.450;2023-06-26T00:54:44;24.28;66.49
76855;DHT22;66343;44.588;33.450;2023-06-26T00:57:13;24.27;66.46
76855;DHT22;66343;44.588;33.450;2023-06-26T00:59:46;24.26;66.50
76855;DHT22;66343;44.588;33.450;2023-06-26T01:02:15;24.26;66.59
76855;DHT22;66343;44.588;33.450;2023-06-26T01:04:51;24.25;66.65
76855;DHT22;66343;44.588;33.450;2023-06-26T01:07:26;24.23;66.63
76855;DHT22;66343;44.588;33.450;2023-06-26T01:09:58;24.20;66.73
76855;DHT22;66343;44.588;33.450;2023-06-26T01:12:31;24.18;66.79
76855;DHT22;66343;44.588;33.450;2023-06-26T01:15:07;24.19;66.71
76855;DHT22;66343;44.588;33.450;2023-06-26T01:17:45;24.18;66.78
76855;DHT22;66343;44.588;33.450;2023-06-26T01:20:24;24.19;66.81
76855;DHT22;66343;44.588;33.450;2023-06-26T01:23:14;24.19;66.61
76855;DHT22;66343;44.588;33.450;2023-06-26T01:28:41;24.19;66.68
76855;DHT22;66343;44.588;33.450;2023-06-26T01:31:15;24.18;66.38
76855;DHT22;66343;44.588;33.450;2023-06-26T01:33:47;24.15;66.65
76855;DHT22;66343;44.588;33.450;2023-06-26T01:36:23;24.14;66.74
76855;DHT22;66343;44.588;33.450;2023-06-26T01:38:57;24.13;66.79
76855;DHT22;66343;44.588;33.450;2023-06-26T01:41:36;24.17;66.64
76855;DHT22;66343;44.588;33.450;2023-06-26T01:44:12;24.19;66.62
76855;DHT22;66343;44.588;33.450;2023-06-26T01:47:04;24.19;66.56
76855;DHT22;66343;44.588;33.450;2023-06-26T01:49:49;24.21;66.49
76855;DHT22;66343;44.588;33.450;2023-06-26T01:57:47;24.14;66.75
76855;DHT22;66343;44.588;33.450;2023-06-26T02:00:17;24.14;66.66
76855;DHT22;66343;44.588;33.450;2023-06-26T02:02:57;24.14;66.56
76855;DHT22;66343;44.588;33.450;2023-06-26T02:05:29;24.14;66.51
76855;DHT22;66343;44.588;33.450;2023-06-26T02:08:06;24.13;66.46
76855;DHT22;66343;44.588;33.450;2023-06-26T02:10:38;24.15;66.33
76855;DHT22;66343;44.588;33.450;2023-06-26T02:13:11;24.15;66.28
76855;DHT22;66343;44.588;33.450;2023-06-26T02:15:45;24.15;66.23
76855;DHT22;66343;44.588;33.450;2023-06-26T02:18:14;24.12;66.27
76855;DHT22;66343;44.588;33.450;2023-06-26T02:20:49;24.13;66.26
76855;DHT22;66343;44.588;33.450;2023-06-26T02:23:20;24.10;66.30
76855;DHT22;66343;44.588;33.450;2023-06-26T02:25:50;24.06;66.37
76855;DHT22;66343;44.588;33.450;2023-06-26T02:28:22;24.08;66.27
76855;DHT22;66343;44.588;33.450;2023-06-26T02:30:53;24.08;66.24
76855;DHT22;66343;44.588;33.450;2023-06-26T02:33:23;24.08;66.26
76855;DHT22;66343;44.588;33.450;2023-06-26T02:36:00;24.11;66.04
76855;DHT22;66343;44.588;33.450;2023-06-26T02:38:33;24.12;66.04
76855;DHT22;66343;44.588;33.450;2023-06-26T02:41:07;24.12;65.88
76855;DHT22;66343;44.588;33.450;2023-06-26T02:43:37;24.15;65.69
76855;DHT22;66343;44.588;33.450;2023-06-26T02:46:11;24.19;65.54
76855;DHT22;66343;44.588;33.450;2023-06-26T02:48:47;24.18;65.48
76855;DHT22;66343;44.588;33.450;2023-06-26T02:51:19;24.18;65.51
76855;DHT22;66343;44.588;33.450;2023-06-26T02:53:54;24.19;65.40
76855;DHT22;66343;44.588;33.450;2023-06-26T02:56:29;24.24;65.30
76855;DHT22;66343;44.588;33.450;2023-06-26T02:59:04;24.21;65.30
76855;DHT22;66343;44.588;33.450;2023-06-26T03:01:40;24.24;65.37
76855;DHT22;66343;44.588;33.450;2023-06-26T03:04:12;24.23;65.33
76855;DHT22;66343;44.588;33.450;2023-06-26T03:06:56;24.24;65.55
76855;DHT22;66343;44.588;33.450;2023-06-26T03:09:28;24.25;65.63
76855;DHT22;66343;44.588;33.450;2023-06-26T03:12:03;24.24;65.80
76855;DHT22;66343;44.588;33.450;2023-06-26T03:14:39;24.25;65.78
76855;DHT22;66343;44.588;33.450;2023-06-26T03:17:11;24.19;65.85
76855;DHT22;66343;44.588;33.450;2023-06-26T03:19:47;24.17;66.10
76855;DHT22;66343;44.588;33.450;2023-06-26T03:22:22;24.18;66.18
76855;DHT22;66343;44.588;33.450;2023-06-26T03:24:59;24.21;66.12
76855;DHT22;66343;44.588;33.450;2023-06-26T03:27:36;24.23;65.91
76855;DHT22;66343;44.588;33.450;2023-06-26T03:30:06;24.23;65.85
76855;DHT22;66343;44.588;33.450;2023-06-26T03:32:44;24.17;65.61
76855;DHT22;66343;44.588;33.450;2023-06-26T03:35:13;24.11;65.71
76855;DHT22;66343;44.588;33.450;2023-06-26T03:37:44;24.05;66.14
76855;DHT22;66343;44.588;33.450;2023-06-26T03:40:14;24.05;66.10
76855;DHT22;66343;44.588;33.450;2023-06-26T03:42:47;24.09;66.49
76855;DHT22;66343;44.588;33.450;2023-06-26T03:45:17;24.16;66.03
76855;DHT22;66343;44.588;33.450;2023-06-26T03:47:54;24.25;66.49
76855;DHT22;66343;44.588;33.450;2023-06-26T03:50:30;24.33;65.85
76855;DHT22;66343;44.588;33.450;2023-06-26T03:53:01;24.35;65.80
76855;DHT22;66343;44.588;33.450;2023-06-26T03:55:31;24.41;65.06
76855;DHT22;66343;44.588;33.450;2023-06-26T03:58:06;24.42;64.95
76855;DHT22;66343;44.588;33.450;2023-06-26T04:00:40;24.43;65.59
76855;DHT22;66343;44.588;33.450;2023-06-26T04:03:10;24.48;65.38
76855;DHT22;66343;44.588;33.450;2023-06-26T04:05:44;24.51;65.56
76855;DHT22;66343;44.588;33.450;2023-06-26T04:08:14;24.57;65.37
76855;DHT22;66343;44.588;33.450;2023-06-26T04:10:49;24.60;64.92
76855;DHT22;66343;44.588;33.450;2023-06-26T04:13:26;24.69;64.58
76855;DHT22;66343;44.588;33.450;2023-06-26T04:16:00;24.69;65.11
76855;DHT22;66343;44.588;33.450;2023-06-26T04:18:30;24.76;65.08
76855;DHT22;66343;44.588;33.450;2023-06-26T04:21:11;24.89;64.53
76855;DHT22;66343;44.588;33.450;2023-06-26T04:23:43;24.91;64.24
76855;DHT22;66343;44.588;33.450;2023-06-26T04:26:17;24.98;64.00
76855;DHT22;66343;44.588;33.450;2023-06-26T04:28:46;24.90;64.35
76855;DHT22;66343;44.588;33.450;2023-06-26T04:31:17;24.97;64.50
76855;DHT22;66343;44.588;33.450;2023-06-26T04:33:47;25.01;64.98
76855;DHT22;66343;44.588;33.450;2023-06-26T04:36:24;25.04;65.44
76855;DHT22;66343;44.588;33.450;2023-06-26T04:39:06;24.98;66.20
76855;DHT22;66343;44.588;33.450;2023-06-26T04:41:36;24.98;67.05
76855;DHT22;66343;44.588;33.450;2023-06-26T04:44:08;24.93;66.66
76855;DHT22;66343;44.588;33.450;2023-06-26T04:46:38;24.93;66.62
76855;DHT22;66343;44.588;33.450;2023-06-26T04:49:13;24.89;66.43
76855;DHT22;66343;44.588;33.450;2023-06-26T04:51:42;24.88;66.64
76855;DHT22;66343;44.588;33.450;2023-06-26T04:54:16;24.91;67.21
76855;DHT22;66343;44.588;33.450;2023-06-26T04:56:47;24.88;67.34
76855;DHT22;66343;44.588;33.450;2023-06-26T04:59:16;24.88;67.23
76855;DHT22;66343;44.588;33.450;2023-06-26T05:01:45;24.89;67.49
76855;DHT22;66343;44.588;33.450;2023-06-26T05:04:22;24.85;67.75
76855;DHT22;66343;44.588;33.450;2023-06-26T05:06:52;24.84;67.97
76855;DHT22;66343;44.588;33.450;2023-06-26T05:09:21;24.84;67.40
76855;DHT22;66343;44.588;33.450;2023-06-26T05:11:54;24.87;67.52
76855;DHT22;66343;44.588;33.450;2023-06-26T05:14:32;24.88;67.76
76855;DHT22;66343;44.588;33.450;2023-06-26T05:17:01;24.87;68.70
76855;DHT22;66343;44.588;33.450;2023-06-26T05:19:34;24.82;68.57
76855;DHT22;66343;44.588;33.450;2023-06-26T05:22:08;24.80;68.81
76855;DHT22;66343;44.588;33.450;2023-06-26T05:24:42;24.76;69.04
76855;DHT22;66343;44.588;33.450;2023-06-26T05:27:17;24.77;69.16
76855;DHT22;66343;44.588;33.450;2023-06-26T05:29:49;24.78;69.07
76855;DHT22;66343;44.588;33.450;2023-06-26T05:32:19;24.79;69.37
76855;DHT22;66343;44.588;33.450;2023-06-26T05:34:51;24.82;69.07
76855;DHT22;66343;44.588;33.450;2023-06-26T05:37:31;24.80;68.85
76855;DHT22;66343;44.588;33.450;2023-06-26T05:40:06;24.82;68.92
76855;DHT22;66343;44.588;33.450;2023-06-26T05:42:36;24.80;68.77
76855;DHT22;66343;44.588;33.450;2023-06-26T05:45:09;24.85;68.68
76855;DHT22;66343;44.588;33.450;2023-06-26T05:47:42;24.86;68.60
76855;DHT22;66343;44.588;33.450;2023-06-26T05:50:14;24.89;68.75
76855;DHT22;66343;44.588;33.450;2023-06-26T05:52:46;24.91;68.36
76855;DHT22;66343;44.588;33.450;2023-06-26T05:55:18;24.87;68.32
76855;DHT22;66343;44.588;33.450;2023-06-26T05:57:50;24.90;67.94
76855;DHT22;66343;44.588;33.450;2023-06-26T06:00:26;24.89;68.04
76855;DHT22;66343;44.588;33.450;2023-06-26T06:02:58;24.94;68.20
76855;DHT22;66343;44.588;33.450;2023-06-26T06:05:27;24.91;68.02
76855;DHT22;66343;44.588;33.450;2023-06-26T06:07:57;24.91;68.13
76855;DHT22;66343;44.588;33.450;2023-06-26T06:10:26;24.88;67.81
76855;DHT22;66343;44.588;33.450;2023-06-26T06:12:55;24.91;68.18
76855;DHT22;66343;44.588;33.450;2023-06-26T06:15:27;24.90;67.62
76855;DHT22;66343;44.588;33.450;2023-06-26T06:17:58;24.91;67.90
76855;DHT22;66343;44.588;33.450;2023-06-26T06:20:34;24.94;67.75
76855;DHT22;66343;44.588;33.450;2023-06-26T06:23:06;24.95;67.41
76855;DHT22;66343;44.588;33.450;2023-06-26T06:25:38;24.97;66.81
76855;DHT22;66343;44.588;33.450;2023-06-26T06:28:12;24.94;67.81
76855;DHT22;66343;44.588;33.450;2023-06-26T06:30:48;24.99;67.72
76855;DHT22;66343;44.588;33.450;2023-06-26T06:33:22;25.00;68.24
76855;DHT22;66343;44.588;33.450;2023-06-26T06:35:52;24.99;68.43
76855;DHT22;66343;44.588;33.450;2023-06-26T06:38:26;25.00;68.47
76855;DHT22;66343;44.588;33.450;2023-06-26T06:40:57;24.99;68.29
76855;DHT22;66343;44.588;33.450;2023-06-26T06:43:26;24.97;68.61
76855;DHT22;66343;44.588;33.450;2023-06-26T06:45:58;24.94;68.62
76855;DHT22;66343;44.588;33.450;2023-06-26T06:48:28;24.95;68.25
76855;DHT22;66343;44.588;33.450;2023-06-26T06:51:03;24.97;68.48
76855;DHT22;66343;44.588;33.450;2023-06-26T06:53:34;24.99;68.87
76855;DHT22;66343;44.588;33.450;2023-06-26T06:56:04;25.03;69.31
76855;DHT22;66343;44.588;33.450;2023-06-26T06:58:34;25.01;68.27
76855;DHT22;66343;44.588;33.450;2023-06-26T07:01:04;25.00;68.28
76855;DHT22;66343;44.588;33.450;2023-06-26T07:03:33;24.99;69.14
76855;DHT22;66343;44.588;33.450;2023-06-26T07:06:03;24.99;69.04
76855;DHT22;66343;44.588;33.450;2023-06-26T07:08:35;25.03;69.69
76855;DHT22;66343;44.588;33.450;2023-06-26T07:11:04;25.03;68.94
76855;DHT22;66343;44.588;33.450;2023-06-26T07:13:33;25.03;69.36
76855;DHT22;66343;44.588;33.450;2023-06-26T07:16:07;25.04;68.64
76855;DHT22;66343;44.588;33.450;2023-06-26T07:18:47;25.00;69.30
76855;DHT22;66343;44.588;33.450;2023-06-26T07:21:26;25.03;68.88
76855;DHT22;66343;44.588;33.450;2023-06-26T07:23:58;25.05;69.18
76855;DHT22;66343;44.588;33.450;2023-06-26T07:26:27;25.08;69.23
76855;DHT22;66343;44.588;33.450;2023-06-26T07:29:17;25.13;68.90
76855;DHT22;66343;44.588;33.450;2023-06-26T07:31:46;25.16;68.10
76855;DHT22;66343;44.588;33.450;2023-06-26T07:34:17;25.09;68.11
76855;DHT22;66343;44.588;33.450;2023-06-26T07:36:46;25.08;68.95
76855;DHT22;66343;44.588;33.450;2023-06-26T07:39:15;25.06;68.93
76855;DHT22;66343;44.588;33.450;2023-06-26T07:41:54;25.12;69.25
76855;DHT22;66343;44.588;33.450;2023-06-26T07:44:26;25.10;67.91
76855;DHT22;66343;44.588;33.450;2023-06-26T07:46:55;25.12;68.98
76855;DHT22;66343;44.588;33.450;2023-06-26T07:49:27;25.14;68.63
76855;DHT22;66343;44.588;33.450;2023-06-26T07:52:04;25.15;68.77
76855;DHT22;66343;44.588;33.450;2023-06-26T07:54:33;25.19;69.19
76855;DHT22;66343;44.588;33.450;2023-06-26T07:57:06;25.22;68.22
76855;DHT22;66343;44.588;33.450;2023-06-26T07:59:38;25.23;68.58
76855;DHT22;66343;44.588;33.450;2023-06-26T08:02:07;25.18;68.94
76855;DHT22;66343;44.588;33.450;2023-06-26T08:04:41;25.19;68.82
76855;DHT22;66343;44.588;33.450;2023-06-26T08:07:13;25.19;69.07
76855;DHT22;66343;44.588;33.450;2023-06-26T08:09:48;25.32;68.46
76855;DHT22;66343;44.588;33.450;2023-06-26T08:12:17;25.30;69.39
76855;DHT22;66343;44.588;33.450;2023-06-26T08:14:52;25.27;68.61
76855;DHT22;66343;44.588;33.450;2023-06-26T08:17:24;25.31;69.20
76855;DHT22;66343;44.588;33.450;2023-06-26T08:19:58;25.31;68.95
76855;DHT22;66343;44.588;33.450;2023-06-26T08:22:27;25.40;68.79
76855;DHT22;66343;44.588;33.450;2023-06-26T08:24:57;25.52;70.19
76855;DHT22;66343;44.588;33.450;2023-06-26T08:27:28;25.63;68.57
76855;DHT22;66343;44.588;33.450;2023-06-26T08:30:07;25.56;67.93
76855;DHT22;66343;44.588;33.450;2023-06-26T08:32:39;25.64;67.39
76855;DHT22;66343;44.588;33.450;2023-06-26T08:35:11;25.72;65.53
76855;DHT22;66343;44.588;33.450;2023-06-26T08:37:47;25.62;65.82
76855;DHT22;66343;44.588;33.450;2023-06-26T08:40:23;25.64;65.79
76855;DHT22;66343;44.588;33.450;2023-06-26T08:42:54;25.60;65.68
76855;DHT22;66343;44.588;33.450;2023-06-26T08:45:26;25.60;66.63
76855;DHT22;66343;44.588;33.450;2023-06-26T08:48:00;25.65;65.75
76855;DHT22;66343;44.588;33.450;2023-06-26T08:50:34;25.58;65.66
76855;DHT22;66343;44.588;33.450;2023-06-26T08:56:02;25.58;64.93
76855;DHT22;66343;44.588;33.450;2023-06-26T08:58:32;25.56;64.56
76855;DHT22;66343;44.588;33.450;2023-06-26T09:01:06;25.57;65.01
76855;DHT22;66343;44.588;33.450;2023-06-26T09:03:36;25.68;64.58
76855;DHT22;66343;44.588;33.450;2023-06-26T09:06:14;25.66;63.94
76855;DHT22;66343;44.588;33.450;2023-06-26T09:08:45;25.61;65.74
76855;DHT22;66343;44.588;33.450;2023-06-26T09:11:15;25.68;65.08
76855;DHT22;66343;44.588;33.450;2023-06-26T09:13:52;25.72;61.32
76855;DHT22;66343;44.588;33.450;2023-06-26T09:16:27;25.69;62.71
76855;DHT22;66343;44.588;33.450;2023-06-26T09:18:59;25.74;61.60
76855;DHT22;66343;44.588;33.450;2023-06-26T09:21:36;25.73;57.35
76855;DHT22;66343;44.588;33.450;2023-06-26T09:24:11;25.77;59.67
76855;DHT22;66343;44.588;33.450;2023-06-26T09:26:45;25.90;59.12
76855;DHT22;66343;44.588;33.450;2023-06-26T09:29:15;25.95;57.72
76855;DHT22;66343;44.588;33.450;2023-06-26T09:31:55;25.96;57.17
76855;DHT22;66343;44.588;33.450;2023-06-26T09:34:33;25.99;61.09
76855;DHT22;66343;44.588;33.450;2023-06-26T09:37:11;26.08;59.65
76855;DHT22;66343;44.588;33.450;2023-06-26T09:39:40;26.11;59.27
76855;DHT22;66343;44.588;33.450;2023-06-26T09:42:13;26.18;57.76
76855;DHT22;66343;44.588;33.450;2023-06-26T09:44:53;26.18;57.66
76855;DHT22;66343;44.588;33.450;2023-06-26T09:47:31;26.18;54.10
76855;DHT22;66343;44.588;33.450;2023-06-26T09:50:21;26.22;56.14
76855;DHT22;66343;44.588;33.450;2023-06-26T09:52:55;26.25;56.60
76855;DHT22;66343;44.588;33.450;2023-06-26T09:55:25;26.28;58.41
76855;DHT22;66343;44.588;33.450;2023-06-26T09:57:59;26.26;59.08
76855;DHT22;66343;44.588;33.450;2023-06-26T10:00:34;26.26;59.10
76855;DHT22;66343;44.588;33.450;2023-06-26T10:03:10;26.30;59.02
76855;DHT22;66343;44.588;33.450;2023-06-26T10:05:43;26.46;60.45
76855;DHT22;66343;44.588;33.450;2023-06-26T10:08:14;26.38;60.93
76855;DHT22;66343;44.588;33.450;2023-06-26T10:10:49;26.36;62.06
76855;DHT22;66343;44.588;33.450;2023-06-26T10:13:29;26.36;62.78
76855;DHT22;66343;44.588;33.450;2023-06-26T10:16:07;26.43;63.02
76855;DHT22;66343;44.588;33.450;2023-06-26T10:18:40;26.48;62.44
76855;DHT22;66343;44.588;33.450;2023-06-26T10:21:16;26.51;63.36
76855;DHT22;66343;44.588;33.450;2023-06-26T10:23:46;26.61;63.28
76855;DHT22;66343;44.588;33.450;2023-06-26T10:26:22;26.73;62.98
76855;DHT22;66343;44.588;33.450;2023-06-26T10:28:56;26.71;61.96
76855;DHT22;66343;44.588;33.450;2023-06-26T10:31:29;26.80;61.25
76855;DHT22;66343;44.588;33.450;2023-06-26T10:34:00;26.78;62.34
76855;DHT22;66343;44.588;33.450;2023-06-26T10:36:33;26.83;61.84
76855;DHT22;66343;44.588;33.450;2023-06-26T10:39:06;26.79;61.71
76855;DHT22;66343;44.588;33.450;2023-06-26T10:41:42;26.57;61.99
76855;DHT22;66343;44.588;33.450;2023-06-26T10:44:45;26.62;63.73
76855;DHT22;66343;44.588;33.450;2023-06-26T10:47:33;26.65;62.26
76855;DHT22;66343;44.588;33.450;2023-06-26T10:50:18;26.75;62.50
76855;DHT22;66343;44.588;33.450;2023-06-26T10:53:16;26.87;62.23
76855;DHT22;66343;44.588;33.450;2023-06-26T10:56:05;26.91;63.00
76855;DHT22;66343;44.588;33.450;2023-06-26T11:01:22;26.98;61.93
76855;DHT22;66343;44.588;33.450;2023-06-26T11:04:06;26.75;61.43
76855;DHT22;66343;44.588;33.450;2023-06-26T11:06:39;26.76;62.37
76855;DHT22;66343;44.588;33.450;2023-06-26T11:09:13;26.81;59.78
76855;DHT22;66343;44.588;33.450;2023-06-26T11:11:55;26.53;60.31
76855;DHT22;66343;44.588;33.450;2023-06-26T11:14:33;26.51;62.21
76855;DHT22;66343;44.588;33.450;2023-06-26T11:17:08;26.51;63.93
76855;DHT22;66343;44.588;33.450;2023-06-26T11:19:45;26.53;61.53
76855;DHT22;66343;44.588;33.450;2023-06-26T11:22:20;26.48;62.24
76855;DHT22;66343;44.588;33.450;2023-06-26T11:24:58;26.63;62.21
76855;DHT22;66343;44.588;33.450;2023-06-26T11:27:42;26.68;62.50
76855;DHT22;66343;44.588;33.450;2023-06-26T11:30:24;26.63;62.37
76855;DHT22;66343;44.588;33.450;2023-06-26T11:33:08;26.68;62.64
76855;DHT22;66343;44.588;33.450;2023-06-26T11:35:47;26.68;61.25
76855;DHT22;66343;44.588;33.450;2023-06-26T11:38:21;26.75;62.06
76855;DHT22;66343;44.588;33.450;2023-06-26T11:40:51;26.90;62.14
76855;DHT22;66343;44.588;33.450;2023-06-26T11:43:28;26.92;62.18
76855;DHT22;66343;44.588;33.450;2023-06-26T11:46:04;27.07;63.17
76855;DHT22;66343;44.588;33.450;2023-06-26T11:48:42;27.17;62.41
76855;DHT22;66343;44.588;33.450;2023-06-26T11:51:16;27.02;61.89
76855;DHT22;66343;44.588;33.450;2023-06-26T11:53:49;27.00;62.74
76855;DHT22;66343;44.588;33.450;2023-06-26T11:56:19;27.02;62.92
76855;DHT22;66343;44.588;33.450;2023-06-26T11:58:59;27.08;62.79
76855;DHT22;66343;44.588;33.450;2023-06-26T12:01:38;26.99;62.79
76855;DHT22;66343;44.588;33.450;2023-06-26T12:04:12;26.93;63.56
76855;DHT22;66343;44.588;33.450;2023-06-26T12:06:48;26.58;65.33
76855;DHT22;66343;44.588;33.450;2023-06-26T12:09:27;26.61;65.95
76855;DHT22;66343;44.588;33.450;2023-06-26T12:12:06;26.72;65.07
76855;DHT22;66343;44.588;33.450;2023-06-26T12:14:39;26.75;64.88
76855;DHT22;66343;44.588;33.450;2023-06-26T12:17:15;26.66;64.73
76855;DHT22;66343;44.588;33.450;2023-06-26T12:19:53;26.64;65.37
76855;DHT22;66343;44.588;33.450;2023-06-26T12:22:22;26.64;65.65
76855;DHT22;66343;44.588;33.450;2023-06-26T12:24:56;26.81;65.46
76855;DHT22;66343;44.588;33.450;2023-06-26T12:27:27;26.64;66.37
76855;DHT22;66343;44.588;33.450;2023-06-26T12:29:56;26.78;66.30
76855;DHT22;66343;44.588;33.450;2023-06-26T12:32:28;26.69;66.78
76855;DHT22;66343;44.588;33.450;2023-06-26T12:35:03;26.78;66.26
76855;DHT22;66343;44.588;33.450;2023-06-26T12:37:41;26.90;66.46
76855;DHT22;66343;44.588;33.450;2023-06-26T12:40:19;26.90;66.78
76855;DHT22;66343;44.588;33.450;2023-06-26T12:42:58;26.96;66.66
76855;DHT22;66343;44.588;33.450;2023-06-26T12:45:37;27.10;65.79
76855;DHT22;66343;44.588;33.450;2023-06-26T12:48:13;27.10;67.10
76855;DHT22;66343;44.588;33.450;2023-06-26T12:50:50;27.24;67.36
76855;DHT22;66343;44.588;33.450;2023-06-26T12:53:25;27.51;66.11
76855;DHT22;66343;44.588;33.450;2023-06-26T12:55:54;27.60;65.50
76855;DHT22;66343;44.588;33.450;2023-06-26T12:58:29;27.73;64.98
76855;DHT22;66343;44.588;33.450;2023-06-26T13:01:09;27.87;63.49
76855;DHT22;66343;44.588;33.450;2023-06-26T13:03:48;27.78;63.35
76855;DHT22;66343;44.588;33.450;2023-06-26T13:06:22;27.65;64.68
76855;DHT22;66343;44.588;33.450;2023-06-26T13:08:52;27.53;66.53
76855;DHT22;66343;44.588;33.450;2023-06-26T13:11:29;27.61;65.80
76855;DHT22;66343;44.588;33.450;2023-06-26T13:14:04;27.61;66.04
76855;DHT22;66343;44.588;33.450;2023-06-26T13:16:42;27.64;66.17
76855;DHT22;66343;44.588;33.450;2023-06-26T13:19:16;27.75;63.97
76855;DHT22;66343;44.588;33.450;2023-06-26T13:21:46;27.82;64.19
76855;DHT22;66343;44.588;33.450;2023-06-26T13:24:19;27.97;63.74
76855;DHT22;66343;44.588;33.450;2023-06-26T13:26:53;28.27;62.53
76855;DHT22;66343;44.588;33.450;2023-06-26T13:29:25;28.50;60.69
76855;DHT22;66343;44.588;33.450;2023-06-26T13:31:58;28.58;60.70
76855;DHT22;66343;44.588;33.450;2023-06-26T13:34:34;28.53;61.38
76855;DHT22;66343;44.588;33.450;2023-06-26T13:37:05;28.68;61.66
76855;DHT22;66343;44.588;33.450;2023-06-26T13:39:40;28.78;60.24
76855;DHT22;66343;44.588;33.450;2023-06-26T13:42:14;28.89;59.10
76855;DHT22;66343;44.588;33.450;2023-06-26T13:44:48;29.07;59.52
76855;DHT22;66343;44.588;33.450;2023-06-26T13:47:31;28.74;59.85
76855;DHT22;66343;44.588;33.450;2023-06-26T13:50:11;28.83;60.11
76855;DHT22;66343;44.588;33.450;2023-06-26T13:52:41;28.76;60.71
76855;DHT22;66343;44.588;33.450;2023-06-26T13:55:16;28.95;59.63
76855;DHT22;66343;44.588;33.450;2023-06-26T13:57:46;28.79;60.07
76855;DHT22;66343;44.588;33.450;2023-06-26T14:00:19;28.60;60.96
76855;DHT22;66343;44.588;33.450;2023-06-26T14:02:56;28.56;61.52
76855;DHT22;66343;44.588;33.450;2023-06-26T14:05:28;28.37;62.36
76855;DHT22;66343;44.588;33.450;2023-06-26T14:08:09;27.99;64.84
76855;DHT22;66343;44.588;33.450;2023-06-26T14:10:39;28.09;64.75
76855;DHT22;66343;44.588;33.450;2023-06-26T14:13:12;28.25;63.77
76855;DHT22;66343;44.588;33.450;2023-06-26T14:15:48;28.38;63.84
76855;DHT22;66343;44.588;33.450;2023-06-26T14:18:24;28.53;62.92
76855;DHT22;66343;44.588;33.450;2023-06-26T14:20:54;28.72;61.92
76855;DHT22;66343;44.588;33.450;2023-06-26T14:23:25;28.92;62.50
76855;DHT22;66343;44.588;33.450;2023-06-26T14:25:55;29.03;61.37
76855;DHT22;66343;44.588;33.450;2023-06-26T14:28:24;29.15;60.98
76855;DHT22;66343;44.588;33.450;2023-06-26T14:30:55;29.42;60.09
76855;DHT22;66343;44.588;33.450;2023-06-26T14:33:24;29.41;60.76
76855;DHT22;66343;44.588;33.450;2023-06-26T14:35:54;29.60;59.09
76855;DHT22;66343;44.588;33.450;2023-06-26T14:38:28;29.41;58.54
76855;DHT22;66343;44.588;33.450;2023-06-26T14:40:57;29.22;58.90
76855;DHT22;66343;44.588;33.450;2023-06-26T14:43:31;29.15;59.13
76855;DHT22;66343;44.588;33.450;2023-06-26T14:46:03;28.95;60.50
76855;DHT22;66343;44.588;33.450;2023-06-26T14:48:36;28.89;60.81
76855;DHT22;66343;44.588;33.450;2023-06-26T14:51:11;28.65;61.78
76855;DHT22;66343;44.588;33.450;2023-06-26T14:53:43;28.29;63.31
76855;DHT22;66343;44.588;33.450;2023-06-26T14:56:13;27.96;64.64
76855;DHT22;66343;44.588;33.450;2023-06-26T14:58:46;28.02;64.85
76855;DHT22;66343;44.588;33.450;2023-06-26T15:01:24;28.23;64.69
76855;DHT22;66343;44.588;33.450;2023-06-26T15:03:57;28.38;64.53
76855;DHT22;66343;44.588;33.450;2023-06-26T15:06:34;28.35;64.68
76855;DHT22;66343;44.588;33.450;2023-06-26T15:09:10;28.25;65.43
76855;DHT22;66343;44.588;33.450;2023-06-26T15:11:43;28.10;66.20
76855;DHT22;66343;44.588;33.450;2023-06-26T15:14:18;28.01;65.74
76855;DHT22;66343;44.588;33.450;2023-06-26T15:16:50;27.88;65.40
76855;DHT22;66343;44.588;33.450;2023-06-26T15:19:32;27.86;65.86
76855;DHT22;66343;44.588;33.450;2023-06-26T15:22:07;27.98;64.32
76855;DHT22;66343;44.588;33.450;2023-06-26T15:24:36;27.75;64.69
76855;DHT22;66343;44.588;33.450;2023-06-26T15:27:09;27.70;65.74
76855;DHT22;66343;44.588;33.450;2023-06-26T15:29:42;27.61;66.88
76855;DHT22;66343;44.588;33.450;2023-06-26T15:32:15;27.71;67.01
76855;DHT22;66343;44.588;33.450;2023-06-26T15:34:49;27.95;66.39
76855;DHT22;66343;44.588;33.450;2023-06-26T15:37:24;28.18;65.51
76855;DHT22;66343;44.588;33.450;2023-06-26T15:40:00;28.29;64.80
76855;DHT22;66343;44.588;33.450;2023-06-26T15:42:31;28.35;63.82
76855;DHT22;66343;44.588;33.450;2023-06-26T15:45:01;28.31;61.49
76855;DHT22;66343;44.588;33.450;2023-06-26T15:47:37;28.38;60.15
76855;DHT22;66343;44.588;33.450;2023-06-26T15:50:10;28.44;59.99
76855;DHT22;66343;44.588;33.450;2023-06-26T15:52:42;28.52;59.28
76855;DHT22;66343;44.588;33.450;2023-06-26T15:55:18;28.55;58.94
76855;DHT22;66343;44.588;33.450;2023-06-26T15:57:47;28.53;58.84
76855;DHT22;66343;44.588;33.450;2023-06-26T16:00:17;28.56;58.96
76855;DHT22;66343;44.588;33.450;2023-06-26T16:02:50;28.60;58.76
76855;DHT22;66343;44.588;33.450;2023-06-26T16:05:26;28.59;58.79
76855;DHT22;66343;44.588;33.450;2023-06-26T16:07:56;28.45;58.32
76855;DHT22;66343;44.588;33.450;2023-06-26T16:10:34;28.40;58.31